OSOK1: Oswego hwy 160

                                SHEF ID:       OSOK1     Oswego hwy 160
STATION TYPE:

PRECIP STAGE RIV-FLOW VOLTAGE BAT-LOAD
in ft cfs volt volt
Ccp-Rev Ccp-Rev Ccp-Rev Ccp-Rev Ccp-Rev
(America/Chicago)
02/24 00:00 0.00 13.66 4504 12.73 12.45
02/24 01:00 0.00 13.67 4517 12.71 12.42
02/24 02:00 0.00 13.67 4517 12.69 12.40
02/24 03:00 0.00 13.66 4504 12.66 12.37
02/24 04:00 0.00 13.64 4480 12.63 12.34
02/24 05:00 0.00 13.65 4492 12.60 12.31
02/24 06:00 0.00 13.64 4480 12.57 12.27
02/24 07:00 0.00 13.63 4468 12.57 12.26
02/24 08:00 0.00 13.60 4431 12.94 12.49
02/24 09:00 0.00 13.59 4419 14.53 13.64
02/24 10:00 0.00 13.61 4443 14.43 13.52
02/24 11:00 0.00 13.59 4419 13.97 13.35
02/24 12:00 0.00 13.60 4431 13.87 13.23
02/24 13:00 0.00 13.60 4431 13.81 13.17
02/24 14:00 0.00 13.61 4443 13.72 13.13
02/24 15:00 0.00 13.61 4443 13.69 13.09
02/24 16:00 0.00 13.59 4419 13.72 13.06
02/24 17:00 0.00 13.62 4455 13.76 13.05
02/24 18:00 0.00 13.61 4443 13.24 13.01
02/24 19:00 0.00 13.62 4455 13.00 12.77
02/24 20:00 0.00 13.62 4455 12.89 12.64
02/24 21:00 0.00 13.62 4455 12.84 12.57
02/24 22:00 0.00 13.62 4455 12.82 12.54
02/24 23:00 0.00 13.61 4443 12.80 12.53
Data processed at Wed 25Feb2026 05:50 GMT

NOTICE: If you are parsing this page

Please convert to using our Data API. Starting early 2026 we will be migrating to: https://water.usace.army.mil with modern pages rendered in JavaScript. When this migration completes you will no longer be able to scrape this page! CWMSDataAPI (CDA)

Timeseries IDs (TSIDs)

TSIDs used from left to right in the data table
OSWN.Precip-Inc.Total.1Hour.1Hour.Ccp-Rev
OSWN.Stage.Inst.1Hour.0.Ccp-Rev
OSWN.Flow.Inst.1Hour.0.Ccp-Rev
OSWN.Volt-Battery.Inst.1Hour.0.Ccp-Rev
OSWN.Volt-Battery Load.Inst.1Hour.0.Ccp-Rev

                            

All information presented herein is the property of the government of the United States of America and may be revised or deleted at any time without prior notice. Dissemination of this information without the expressed written consent of the Public Affairs Office, Tulsa District U.S. Army Corps of Engineers is strictly prohibited. These data are gathered electronically and, as presented, have NOT undergone any form of quality control. These data are NOT guaranteed to be valid or correct.